createdAt,value
2022-09-24T00:01:39.302Z,6.47
2022-09-24T00:04:09.786Z,6.70
2022-09-24T00:06:45.173Z,7.10
2022-09-24T00:09:14.142Z,6.15
2022-09-24T00:11:43.592Z,6.63
2022-09-24T00:14:11.637Z,6.73
2022-09-24T00:16:40.341Z,6.55
2022-09-24T00:19:07.797Z,6.80
2022-09-24T00:21:36.650Z,5.85
2022-09-24T00:24:09.895Z,5.65
2022-09-24T00:26:52.265Z,6.32
2022-09-24T00:29:23.399Z,6.82
2022-09-24T00:31:52.785Z,5.57
2022-09-24T00:34:23.240Z,6.40
2022-09-24T00:36:50.693Z,6.25
2022-09-24T00:39:17.941Z,5.85
2022-09-24T00:41:50.356Z,6.53
2022-09-24T00:44:45.824Z,6.35
2022-09-24T00:47:35.183Z,6.78
2022-09-24T00:50:31.856Z,6.10
2022-09-24T00:53:05.154Z,6.65
2022-09-24T00:55:34.220Z,7.07
2022-09-24T00:58:04.616Z,6.40
2022-09-24T01:00:33.773Z,7.18
2022-09-24T01:03:03.320Z,6.40
2022-09-24T01:05:31.504Z,7.20
2022-09-24T01:07:58.801Z,7.45
2022-09-24T01:11:00.711Z,6.53
2022-09-24T01:14:00.373Z,6.68
2022-09-24T01:16:57.339Z,6.78
2022-09-24T01:19:48.992Z,7.10
2022-09-24T01:22:40.308Z,6.43
2022-09-24T01:25:16.638Z,7.15
2022-09-24T01:27:56.878Z,7.28
2022-09-24T01:30:25.521Z,7.47
2022-09-24T01:32:56.894Z,7.32
2022-09-24T01:35:29.741Z,7.40
2022-09-24T01:38:18.139Z,6.97
2022-09-24T01:40:46.650Z,7.10
2022-09-24T01:43:16.216Z,7.20
2022-09-24T01:45:43.408Z,6.80
2022-09-24T01:48:10.757Z,7.32
2022-09-24T01:50:47.147Z,6.95
2022-09-24T01:53:21.296Z,7.05
2022-09-24T01:55:52.221Z,6.97
2022-09-24T01:58:37.362Z,7.25
2022-09-24T02:01:11.522Z,6.75
2022-09-24T02:03:43.192Z,7.35
2022-09-24T02:06:14.221Z,7.40
2022-09-24T02:08:46.327Z,6.72
2022-09-24T02:11:16.781Z,6.72
2022-09-24T02:13:49.689Z,7.05
2022-09-24T02:16:30.770Z,7.13
2022-09-24T02:19:00.954Z,7.32
2022-09-24T02:21:29.467Z,7.45
2022-09-24T02:24:01.869Z,6.55
2022-09-24T02:26:29.435Z,7.20
2022-09-24T02:28:59.147Z,7.07
2022-09-24T02:31:36.694Z,6.70
2022-09-24T02:34:23.533Z,6.65
2022-09-24T02:36:53.643Z,6.15
2022-09-24T02:39:21.092Z,6.95
2022-09-24T02:41:49.503Z,7.32
2022-09-24T02:44:17.393Z,6.85
2022-09-24T02:46:45.603Z,6.90
2022-09-24T02:49:14.464Z,7.10
2022-09-24T02:51:42.603Z,6.65
2022-09-24T02:54:11.760Z,7.20
2022-09-24T02:56:39.887Z,7.30
2022-09-24T02:59:07.715Z,6.15
2022-09-24T03:01:35.831Z,6.80
2022-09-24T03:04:03.560Z,7.22
2022-09-24T03:06:30.797Z,6.80
2022-09-24T03:08:58.030Z,6.93
2022-09-24T03:11:25.579Z,7.15
2022-09-24T03:13:52.749Z,6.95
2022-09-24T03:16:20.429Z,7.22
2022-09-24T03:18:48.163Z,6.90
2022-09-24T03:21:17.842Z,7.60
2022-09-24T03:23:45.039Z,6.53
2022-09-24T03:26:12.676Z,7.03
2022-09-24T03:28:40.677Z,6.95
2022-09-24T03:31:08.789Z,6.75
2022-09-24T03:33:44.708Z,6.43
2022-09-24T03:36:18.090Z,7.28
2022-09-24T03:38:45.971Z,7.05
2022-09-24T03:41:13.663Z,7.68
2022-09-24T03:43:46.225Z,6.88
2022-09-24T03:46:30.460Z,7.10
2022-09-24T03:49:07.414Z,7.20
2022-09-24T03:51:34.738Z,7.75
2022-09-24T03:54:02.005Z,7.10
2022-09-24T03:56:29.583Z,6.78
2022-09-24T03:58:59.358Z,7.00
2022-09-24T04:01:27.143Z,7.65
2022-09-24T04:03:54.400Z,7.45
2022-09-24T04:08:53.881Z,7.63
2022-09-24T04:11:21.907Z,7.03
2022-09-24T04:13:54.861Z,8.15
2022-09-24T04:16:22.499Z,7.65
2022-09-24T04:18:50.986Z,6.80
2022-09-24T04:21:18.299Z,7.88
2022-09-24T04:23:45.545Z,7.45
2022-09-24T04:26:12.786Z,7.20
2022-09-24T04:28:39.982Z,8.05
2022-09-24T04:31:07.412Z,7.22
2022-09-24T04:33:34.625Z,7.45
2022-09-24T04:36:02.092Z,7.75
2022-09-24T04:38:29.254Z,7.00
2022-09-24T04:41:05.053Z,7.15
2022-09-24T04:43:33.164Z,7.15
2022-09-24T04:46:01.097Z,7.57
2022-09-24T04:48:28.469Z,6.85
2022-09-24T04:50:55.892Z,7.18
2022-09-24T04:53:23.684Z,7.93
2022-09-24T04:55:50.918Z,7.95
2022-09-24T04:58:18.195Z,7.28
2022-09-24T05:00:45.402Z,7.80
2022-09-24T05:03:12.930Z,7.63
2022-09-24T05:05:40.090Z,6.63
2022-09-24T05:08:07.306Z,7.03
2022-09-24T05:10:34.603Z,6.97
2022-09-24T05:13:02.354Z,7.32
2022-09-24T05:15:29.917Z,7.22
2022-09-24T05:17:57.770Z,6.78
2022-09-24T05:20:25.483Z,7.05
2022-09-24T05:22:52.790Z,7.30
2022-09-24T05:25:21.746Z,7.03
2022-09-24T05:27:55.862Z,7.35
2022-09-24T05:30:25.039Z,7.38
2022-09-24T05:32:52.971Z,7.70
2022-09-24T05:35:21.571Z,7.18
2022-09-24T05:37:49.786Z,7.32
2022-09-24T05:40:35.983Z,8.55
2022-09-24T05:43:04.921Z,8.70
2022-09-24T05:45:32.600Z,7.72
2022-09-24T05:48:00.244Z,8.85
2022-09-24T05:50:27.924Z,10.25
2022-09-24T05:52:55.258Z,10.30
2022-09-24T05:55:22.552Z,8.30
2022-09-24T05:57:49.782Z,13.60
2022-09-24T06:00:17.034Z,8.55
2022-09-24T06:02:44.744Z,10.20
2022-09-24T06:05:13.622Z,9.05
2022-09-24T06:07:40.857Z,8.75
2022-09-24T06:10:08.660Z,7.90
2022-09-24T06:12:35.953Z,7.28
2022-09-24T06:15:03.351Z,7.60
2022-09-24T06:17:31.864Z,8.32
2022-09-24T06:19:59.182Z,8.40
2022-09-24T06:22:28.870Z,11.45
2022-09-24T06:24:56.613Z,17.85
2022-09-24T06:27:24.255Z,15.23
2022-09-24T06:29:51.578Z,10.07
2022-09-24T06:32:19.928Z,8.18
2022-09-24T06:34:47.698Z,7.75
2022-09-24T06:37:14.942Z,8.52
2022-09-24T06:39:42.639Z,8.15
2022-09-24T06:42:09.908Z,8.20
2022-09-24T06:44:37.283Z,8.52
2022-09-24T06:47:06.052Z,9.52
2022-09-24T06:49:36.477Z,8.77
2022-09-24T06:52:04.648Z,10.88
2022-09-24T06:54:31.929Z,7.97
2022-09-24T06:56:59.255Z,8.02
2022-09-24T06:59:26.720Z,10.60
2022-09-24T07:01:53.992Z,8.80
2022-09-24T07:04:21.676Z,8.25
2022-09-24T07:07:07.451Z,13.30
2022-09-24T07:09:36.507Z,9.35
2022-09-24T07:12:05.880Z,7.85
2022-09-24T07:14:33.293Z,17.20
2022-09-24T07:17:00.520Z,16.58
2022-09-24T07:19:27.843Z,7.32
2022-09-24T07:21:55.156Z,6.50
2022-09-24T07:24:22.355Z,7.45
2022-09-24T07:26:49.666Z,8.77
2022-09-24T07:29:16.940Z,6.60
2022-09-24T07:31:44.224Z,7.68
2022-09-24T07:34:12.142Z,6.70
2022-09-24T07:36:39.851Z,6.03
2022-09-24T07:39:07.224Z,7.32
2022-09-24T07:41:39.972Z,7.18
2022-09-24T07:44:12.408Z,6.00
2022-09-24T07:46:39.675Z,8.20
2022-09-24T07:49:07.262Z,10.70
2022-09-24T07:51:39.889Z,8.68
2022-09-24T07:54:07.374Z,8.40
2022-09-24T07:56:35.204Z,8.48
2022-09-24T07:59:16.599Z,5.82
2022-09-24T08:01:43.975Z,7.45
2022-09-24T08:04:11.431Z,7.85
2022-09-24T08:06:42.414Z,7.20
2022-09-24T08:09:12.555Z,6.97
2022-09-24T08:11:40.028Z,6.80
2022-09-24T08:14:07.245Z,6.85
2022-09-24T08:16:34.605Z,6.07
2022-09-24T08:19:01.957Z,6.35
2022-09-24T08:21:29.178Z,6.60
2022-09-24T08:24:01.346Z,6.88
2022-09-24T08:26:28.765Z,6.82
2022-09-24T08:28:56.299Z,6.20
2022-09-24T08:31:23.662Z,6.55
2022-09-24T08:33:50.961Z,6.43
2022-09-24T08:36:18.807Z,7.07
2022-09-24T08:38:46.170Z,10.38
2022-09-24T08:41:13.287Z,11.48
2022-09-24T08:43:50.823Z,9.52
2022-09-24T08:46:59.610Z,9.48
2022-09-24T08:49:35.199Z,8.30
2022-09-24T08:52:34.504Z,8.95
2022-09-24T08:55:25.632Z,13.02
2022-09-24T08:58:03.373Z,7.60
2022-09-24T09:00:32.120Z,8.68
2022-09-24T09:03:10.698Z,9.23
2022-09-24T09:05:55.284Z,10.75
2022-09-24T09:09:07.919Z,11.80
2022-09-24T09:11:37.172Z,30.52
2022-09-24T09:14:17.622Z,21.00
2022-09-24T09:17:06.696Z,14.30
2022-09-24T09:19:35.293Z,15.05
2022-09-24T09:22:16.597Z,19.30
2022-09-24T09:24:49.997Z,13.90
2022-09-24T09:27:18.864Z,7.13
2022-09-24T09:29:49.924Z,9.55
2022-09-24T09:32:43.475Z,10.45
2022-09-24T09:35:41.416Z,9.98
2022-09-24T09:38:35.760Z,13.35
2022-09-24T09:41:37.464Z,11.32
2022-09-24T09:44:15.334Z,10.77
2022-09-24T09:46:49.732Z,9.57
2022-09-24T09:49:18.018Z,13.77
2022-09-24T09:51:46.869Z,11.75
2022-09-24T09:54:14.344Z,12.05
2022-09-24T09:56:44.936Z,8.73
2022-09-24T09:59:12.067Z,8.82
2022-09-24T10:01:55.937Z,9.15
2022-09-24T10:04:35.295Z,8.30
2022-09-24T10:07:13.950Z,8.15
2022-09-24T10:09:42.241Z,8.38
2022-09-24T10:12:24.193Z,10.55
2022-09-24T10:15:12.369Z,8.48
2022-09-24T10:17:39.939Z,8.30
2022-09-24T10:20:18.585Z,7.25
2022-09-24T10:22:54.855Z,17.85
2022-09-24T10:25:29.928Z,12.05
2022-09-24T10:28:18.401Z,8.18
2022-09-24T10:30:55.366Z,8.25
2022-09-24T10:33:23.551Z,8.05
2022-09-24T10:35:51.412Z,7.88
2022-09-24T10:38:21.504Z,8.15
2022-09-24T10:43:19.130Z,8.27
2022-09-24T10:45:55.387Z,8.50
2022-09-24T10:48:41.838Z,8.30
2022-09-24T10:51:44.069Z,11.80
2022-09-24T10:54:30.468Z,9.15
2022-09-24T10:56:59.597Z,8.73
2022-09-24T10:59:50.179Z,9.25
2022-09-24T11:02:59.866Z,9.23
2022-09-24T11:05:41.223Z,9.30
2022-09-24T11:08:37.357Z,8.77
2022-09-24T11:11:12.336Z,8.48
2022-09-24T11:13:51.623Z,9.02
2022-09-24T11:16:39.415Z,9.50
2022-09-24T11:19:28.711Z,10.05
2022-09-24T11:21:58.856Z,9.33
2022-09-24T11:24:28.815Z,14.52
2022-09-24T11:26:55.956Z,14.27
2022-09-24T11:29:44.282Z,10.82
2022-09-24T11:32:29.869Z,10.13
2022-09-24T11:35:35.532Z,9.50
2022-09-24T11:38:28.476Z,10.20
2022-09-24T11:41:12.773Z,9.88
2022-09-24T11:43:52.793Z,9.05
2022-09-24T11:46:32.297Z,9.73
2022-09-24T11:49:11.281Z,9.60
2022-09-24T11:51:59.642Z,10.07
2022-09-24T11:54:29.596Z,10.95
2022-09-24T11:57:09.031Z,9.52
2022-09-24T11:59:45.507Z,10.83
2022-09-24T12:02:20.947Z,9.00
2022-09-24T12:04:55.594Z,9.20
2022-09-24T12:07:28.243Z,10.52
2022-09-24T12:10:25.110Z,9.18
2022-09-24T12:12:59.507Z,9.65
2022-09-24T12:15:43.906Z,10.65
2022-09-24T12:18:18.829Z,8.77
2022-09-24T12:20:56.790Z,9.20
2022-09-24T12:23:29.860Z,9.25
2022-09-24T12:26:09.193Z,8.50
2022-09-24T12:29:05.938Z,9.38
2022-09-24T12:32:07.389Z,9.35
2022-09-24T12:34:56.509Z,9.40
2022-09-24T12:37:30.082Z,8.57
2022-09-24T12:40:12.804Z,8.02
2022-09-24T12:42:43.779Z,9.00
2022-09-24T12:45:16.693Z,8.63
2022-09-24T12:47:50.650Z,7.43
2022-09-24T12:50:27.313Z,8.05
2022-09-24T12:52:55.500Z,7.28
2022-09-24T12:55:28.950Z,8.45
2022-09-24T12:57:59.751Z,8.02
2022-09-24T13:00:36.434Z,9.15
2022-09-24T13:03:05.795Z,8.40
2022-09-24T13:05:42.480Z,8.07
2022-09-24T13:08:16.975Z,8.30
2022-09-24T13:11:05.809Z,9.25
2022-09-24T13:13:36.996Z,9.82
2022-09-24T13:18:57.200Z,9.88
2022-09-24T13:21:26.642Z,9.68
2022-09-24T13:23:54.817Z,19.77
2022-09-24T13:26:25.198Z,9.57
2022-09-24T13:29:04.247Z,10.45
2022-09-24T13:31:38.514Z,7.82
2022-09-24T13:34:32.014Z,8.05
2022-09-24T13:37:03.779Z,8.25
2022-09-24T13:39:45.361Z,7.80
2022-09-24T13:42:18.515Z,7.68
2022-09-24T13:44:49.277Z,8.38
2022-09-24T13:47:36.317Z,7.55
2022-09-24T13:50:09.778Z,8.43
2022-09-24T13:52:43.087Z,7.82
2022-09-24T13:55:34.055Z,8.65
2022-09-24T13:58:01.409Z,8.40
2022-09-24T14:00:31.375Z,10.90
2022-09-24T14:02:58.802Z,10.63
2022-09-24T14:05:26.887Z,8.50
2022-09-24T14:08:14.650Z,8.35
2022-09-24T14:10:42.807Z,7.85
2022-09-24T14:13:22.728Z,6.88
2022-09-24T14:16:03.084Z,7.03
2022-09-24T14:18:30.858Z,7.28
2022-09-24T14:20:59.808Z,7.03
2022-09-24T14:23:31.750Z,7.13
2022-09-24T14:26:00.241Z,8.18
2022-09-24T14:28:32.814Z,7.75
2022-09-24T14:31:00.839Z,7.35
2022-09-24T14:33:32.612Z,8.15
2022-09-24T14:36:17.012Z,8.15
2022-09-24T14:38:57.857Z,7.80
2022-09-24T14:41:32.051Z,9.30
2022-09-24T14:44:03.443Z,8.75
2022-09-24T14:46:58.313Z,10.18
2022-09-24T14:49:43.522Z,9.50
2022-09-24T14:52:30.887Z,9.15
2022-09-24T14:55:22.053Z,9.05
2022-09-24T14:57:55.292Z,9.60
2022-09-24T15:00:38.414Z,8.90
2022-09-24T15:03:13.345Z,9.40
2022-09-24T15:05:40.741Z,9.40
2022-09-24T15:08:23.344Z,7.65
2022-09-24T15:11:01.007Z,7.95
2022-09-24T15:13:38.258Z,8.63
2022-09-24T15:16:07.312Z,7.95
2022-09-24T15:18:35.704Z,7.68
2022-09-24T15:21:08.387Z,8.90
2022-09-24T15:23:35.950Z,7.90
2022-09-24T15:26:04.376Z,8.00
2022-09-24T15:28:45.139Z,8.43
2022-09-24T15:33:42.247Z,8.85
2022-09-24T15:36:21.219Z,8.50
2022-09-24T15:38:52.996Z,8.30
2022-09-24T15:41:20.310Z,7.68
2022-09-24T15:43:47.595Z,8.73
2022-09-24T15:46:14.891Z,8.07
2022-09-24T15:48:42.352Z,8.77
2022-09-24T15:51:14.993Z,9.10
2022-09-24T15:53:43.023Z,8.05
2022-09-24T15:56:10.257Z,8.32
2022-09-24T15:58:37.734Z,8.48
2022-09-24T16:01:05.244Z,8.80
2022-09-24T16:03:33.298Z,9.90
2022-09-24T16:06:00.602Z,8.10
2022-09-24T16:08:30.530Z,8.48
2022-09-24T16:10:57.778Z,9.65
2022-09-24T16:13:26.312Z,9.20
2022-09-24T16:15:55.372Z,8.82
2022-09-24T16:18:25.984Z,9.32
2022-09-24T16:20:53.508Z,9.50
2022-09-24T16:23:20.913Z,9.43
2022-09-24T16:25:58.281Z,9.45
2022-09-24T16:28:29.685Z,9.68
2022-09-24T16:30:58.309Z,9.95
2022-09-24T16:33:25.930Z,8.93
2022-09-24T16:35:53.150Z,8.15
2022-09-24T16:38:22.784Z,7.63
2022-09-24T16:40:59.667Z,8.13
2022-09-24T16:43:27.124Z,8.52
2022-09-24T16:45:54.298Z,9.30
2022-09-24T16:48:21.721Z,9.40
2022-09-24T16:50:49.485Z,8.43
2022-09-24T16:53:16.769Z,8.88
2022-09-24T16:55:43.955Z,8.77
2022-09-24T16:58:11.256Z,8.95
2022-09-24T17:00:42.513Z,8.70
2022-09-24T17:03:11.465Z,8.15
2022-09-24T17:05:40.792Z,8.10
2022-09-24T17:08:08.555Z,7.90
2022-09-24T17:10:35.694Z,8.40
2022-09-24T17:13:03.332Z,7.10
2022-09-24T17:15:30.810Z,8.05
2022-09-24T17:17:59.463Z,8.27
2022-09-24T17:20:26.687Z,8.80
2022-09-24T17:22:53.898Z,8.68
2022-09-24T17:25:21.718Z,7.18
2022-09-24T17:27:49.016Z,6.78
2022-09-24T17:30:16.419Z,4.28
2022-09-24T17:32:43.569Z,4.63
2022-09-24T17:35:10.986Z,4.15
2022-09-24T17:37:38.445Z,3.97
2022-09-24T17:40:06.199Z,3.40
2022-09-24T17:42:33.948Z,2.30
2022-09-24T17:45:01.277Z,2.53
2022-09-24T17:47:49.926Z,2.35
2022-09-24T17:50:17.212Z,2.03
2022-09-24T17:52:44.762Z,2.50
2022-09-24T17:55:12.182Z,2.08
2022-09-24T17:57:39.361Z,2.08
2022-09-24T18:00:07.375Z,2.40
2022-09-24T18:02:38.900Z,2.30
2022-09-24T18:05:07.489Z,2.38
2022-09-24T18:07:34.813Z,2.25
2022-09-24T18:10:02.103Z,2.67
2022-09-24T18:12:29.663Z,2.80
2022-09-24T18:14:57.766Z,2.85
2022-09-24T18:17:25.062Z,2.97
2022-09-24T18:19:52.363Z,3.40
2022-09-24T18:22:19.636Z,3.35
2022-09-24T18:24:47.556Z,3.78
2022-09-24T18:27:16.043Z,3.67
2022-09-24T18:29:44.881Z,3.97
2022-09-24T18:32:13.507Z,3.63
2022-09-24T18:34:40.813Z,4.35
2022-09-24T18:37:08.023Z,4.30
2022-09-24T18:39:35.239Z,4.30
2022-09-24T18:42:02.609Z,3.83
2022-09-24T18:44:29.795Z,4.28
2022-09-24T18:46:57.207Z,4.40
2022-09-24T18:49:24.581Z,5.55
2022-09-24T18:51:52.052Z,5.20
2022-09-24T18:54:19.496Z,4.53
2022-09-24T18:56:46.966Z,5.22
2022-09-24T18:59:19.213Z,4.60
2022-09-24T19:01:47.847Z,3.80
2022-09-24T19:04:15.580Z,3.63
2022-09-24T19:06:44.713Z,4.18
2022-09-24T19:09:13.588Z,3.83
2022-09-24T19:11:41.951Z,3.60
2022-09-24T19:14:10.619Z,3.75
2022-09-24T19:16:38.033Z,3.85
2022-09-24T19:19:05.274Z,3.38
2022-09-24T19:21:32.579Z,3.58
2022-09-24T19:24:00.046Z,3.42
2022-09-24T19:26:32.060Z,4.10
2022-09-24T19:28:59.723Z,3.60
2022-09-24T19:31:32.927Z,3.40
2022-09-24T19:34:04.609Z,3.63
2022-09-24T19:36:43.661Z,3.70
2022-09-24T19:39:14.027Z,3.65
2022-09-24T19:41:41.850Z,3.25
2022-09-24T19:44:09.662Z,3.65
2022-09-24T19:46:38.422Z,3.72
2022-09-24T19:49:06.825Z,3.55
2022-09-24T19:51:34.885Z,3.80
2022-09-24T19:54:09.106Z,4.05
2022-09-24T19:56:37.122Z,3.60
2022-09-24T19:59:05.179Z,3.70
2022-09-24T20:01:33.218Z,3.92
2022-09-24T20:04:03.755Z,4.90
2022-09-24T20:06:33.613Z,4.20
2022-09-24T20:09:01.040Z,4.15
2022-09-24T20:11:29.365Z,4.55
2022-09-24T20:13:56.905Z,4.25
2022-09-24T20:16:26.360Z,4.43
2022-09-24T20:18:59.889Z,4.13
2022-09-24T20:21:29.165Z,4.65
2022-09-24T20:23:57.651Z,4.57
2022-09-24T20:26:44.291Z,4.80
2022-09-24T20:29:13.038Z,4.60
2022-09-24T20:31:52.020Z,4.57
2022-09-24T20:34:28.764Z,5.40
2022-09-24T20:36:59.317Z,4.97
2022-09-24T20:39:27.173Z,5.28
2022-09-24T20:42:01.612Z,4.63
2022-09-24T20:44:29.728Z,4.43
2022-09-24T20:46:58.034Z,4.85
2022-09-24T20:49:25.769Z,8.90
2022-09-24T20:51:57.053Z,6.93
2022-09-24T20:54:25.835Z,6.18
2022-09-24T20:56:53.122Z,6.22
2022-09-24T20:59:20.400Z,5.82
2022-09-24T21:01:49.333Z,6.13
2022-09-24T21:04:17.606Z,6.53
2022-09-24T21:06:44.873Z,6.75
2022-09-24T21:09:13.478Z,6.65
2022-09-24T21:11:42.083Z,6.05
2022-09-24T21:14:10.928Z,6.32
2022-09-24T21:16:38.354Z,6.20
2022-09-24T21:19:07.791Z,6.45
2022-09-24T21:21:38.808Z,5.47
2022-09-24T21:24:08.505Z,5.47
2022-09-24T21:26:37.198Z,5.32
2022-09-24T21:29:16.489Z,4.55
2022-09-24T21:31:46.221Z,4.20
2022-09-24T21:34:15.988Z,4.10
2022-09-24T21:36:45.709Z,4.15
2022-09-24T21:39:18.174Z,4.47
2022-09-24T21:41:48.065Z,4.90
2022-09-24T21:44:16.918Z,4.85
2022-09-24T21:46:44.441Z,5.18
2022-09-24T21:49:12.170Z,4.88
2022-09-24T21:51:40.579Z,5.72
2022-09-24T21:54:09.669Z,5.28
2022-09-24T21:56:36.944Z,5.65
2022-09-24T21:59:27.930Z,4.50
2022-09-24T22:01:56.747Z,4.25
2022-09-24T22:04:24.148Z,4.60
2022-09-24T22:06:51.759Z,4.70
2022-09-24T22:09:19.556Z,4.50
2022-09-24T22:11:47.206Z,4.22
2022-09-24T22:14:14.747Z,4.50
2022-09-24T22:16:42.156Z,4.22
2022-09-24T22:19:09.531Z,4.43
2022-09-24T22:21:36.896Z,4.57
2022-09-24T22:24:04.988Z,4.32
2022-09-24T22:26:32.625Z,4.60
2022-09-24T22:29:00.433Z,4.22
2022-09-24T22:31:28.207Z,3.47
2022-09-24T22:34:13.897Z,3.80
2022-09-24T22:36:41.336Z,3.38
2022-09-24T22:39:09.087Z,3.58
2022-09-24T22:41:38.951Z,3.80
2022-09-24T22:44:07.589Z,3.42
2022-09-24T22:46:36.329Z,4.03
2022-09-24T22:49:05.257Z,3.75
2022-09-24T22:51:33.435Z,4.03
2022-09-24T22:54:00.867Z,3.88
2022-09-24T22:56:29.915Z,3.78
2022-09-24T22:58:59.325Z,3.70
2022-09-24T23:01:32.213Z,3.10
2022-09-24T23:04:00.433Z,3.25
2022-09-24T23:06:28.116Z,2.83
2022-09-24T23:08:55.396Z,4.28
2022-09-24T23:11:24.039Z,2.95
2022-09-24T23:14:03.249Z,3.58
2022-09-24T23:16:34.257Z,3.40
2022-09-24T23:19:04.352Z,3.03
2022-09-24T23:21:32.539Z,2.38
2022-09-24T23:24:16.798Z,2.55
2022-09-24T23:26:45.024Z,2.65
2022-09-24T23:29:13.254Z,3.88
2022-09-24T23:31:40.600Z,2.55
2022-09-24T23:34:10.541Z,2.75
2022-09-24T23:36:37.846Z,2.83
2022-09-24T23:39:05.986Z,2.83
2022-09-24T23:41:33.356Z,2.80
2022-09-24T23:44:00.645Z,2.40
2022-09-24T23:46:28.412Z,2.63
2022-09-24T23:48:56.282Z,3.38
2022-09-24T23:51:23.600Z,3.15
2022-09-24T23:53:50.925Z,2.95
2022-09-24T23:56:18.825Z,2.38
2022-09-24T23:58:46.127Z,3.50
